sensor_id;sensor_type;location;lat;lon;timestamp;pressure;altitude;pressure_sealevel;temperature;humidity
60832;BME280;46665;51.558;-0.448;2024-01-06T00:01:16;100418.09;;;4.45;100.00
60832;BME280;46665;51.558;-0.448;2024-01-06T00:04:00;100412.69;;;4.45;100.00
60832;BME280;46665;51.558;-0.448;2024-01-06T00:06:44;100416.78;;;4.47;100.00
60832;BME280;46665;51.558;-0.448;2024-01-06T00:09:28;100410.56;;;4.47;100.00
60832;BME280;46665;51.558;-0.448;2024-01-06T00:12:11;100413.59;;;4.50;100.00
60832;BME280;46665;51.558;-0.448;2024-01-06T00:14:55;100420.28;;;4.48;100.00
60832;BME280;46665;51.558;-0.448;2024-01-06T00:17:39;100421.44;;;4.52;100.00
60832;BME280;46665;51.558;-0.448;2024-01-06T00:20:23;100416.28;;;4.50;100.00
60832;BME280;46665;51.558;-0.448;2024-01-06T00:23:07;100420.53;;;4.46;100.00
60832;BME280;46665;51.558;-0.448;2024-01-06T00:25:51;100418.44;;;4.48;100.00
60832;BME280;46665;51.558;-0.448;2024-01-06T00:28:35;100418.72;;;4.52;100.00
60832;BME280;46665;51.558;-0.448;2024-01-06T00:31:19;100426.59;;;4.53;100.00
60832;BME280;46665;51.558;-0.448;2024-01-06T00:34:03;100430.91;;;4.54;100.00
60832;BME280;46665;51.558;-0.448;2024-01-06T00:36:47;100436.53;;;4.53;100.00
60832;BME280;46665;51.558;-0.448;2024-01-06T00:39:31;100443.00;;;4.52;100.00
60832;BME280;46665;51.558;-0.448;2024-01-06T00:42:15;100439.78;;;4.55;100.00
60832;BME280;46665;51.558;-0.448;2024-01-06T00:44:59;100439.00;;;4.54;100.00
60832;BME280;46665;51.558;-0.448;2024-01-06T00:47:43;100448.47;;;4.57;100.00
60832;BME280;46665;51.558;-0.448;2024-01-06T00:50:27;100450.91;;;4.59;100.00
60832;BME280;46665;51.558;-0.448;2024-01-06T00:53:11;100454.09;;;4.55;100.00
60832;BME280;46665;51.558;-0.448;2024-01-06T00:55:56;100453.53;;;4.53;100.00
60832;BME280;46665;51.558;-0.448;2024-01-06T00:58:40;100451.22;;;4.45;100.00
60832;BME280;46665;51.558;-0.448;2024-01-06T01:01:23;100453.91;;;4.45;100.00
60832;BME280;46665;51.558;-0.448;2024-01-06T01:04:07;100447.50;;;4.46;100.00
60832;BME280;46665;51.558;-0.448;2024-01-06T01:06:51;100454.19;;;4.44;100.00
60832;BME280;46665;51.558;-0.448;2024-01-06T01:09:35;100454.41;;;4.42;100.00
60832;BME280;46665;51.558;-0.448;2024-01-06T01:12:19;100451.22;;;4.45;100.00
60832;BME280;46665;51.558;-0.448;2024-01-06T01:15:03;100457.78;;;4.49;100.00
60832;BME280;46665;51.558;-0.448;2024-01-06T01:17:47;100461.03;;;4.51;100.00
60832;BME280;46665;51.558;-0.448;2024-01-06T01:20:31;100460.22;;;4.51;100.00
60832;BME280;46665;51.558;-0.448;2024-01-06T01:23:15;100462.94;;;4.51;100.00
60832;BME280;46665;51.558;-0.448;2024-01-06T01:25:59;100465.34;;;4.52;100.00
60832;BME280;46665;51.558;-0.448;2024-01-06T01:28:44;100464.78;;;4.50;100.00
60832;BME280;46665;51.558;-0.448;2024-01-06T01:31:28;100461.63;;;4.53;100.00
60832;BME280;46665;51.558;-0.448;2024-01-06T01:34:12;100469.34;;;4.50;100.00
60832;BME280;46665;51.558;-0.448;2024-01-06T01:36:55;100470.44;;;4.49;100.00
60832;BME280;46665;51.558;-0.448;2024-01-06T01:39:40;100473.94;;;4.49;100.00
60832;BME280;46665;51.558;-0.448;2024-01-06T01:42:24;100476.41;;;4.51;100.00
60832;BME280;46665;51.558;-0.448;2024-01-06T01:45:08;100476.41;;;4.51;100.00
60832;BME280;46665;51.558;-0.448;2024-01-06T01:47:52;100489.59;;;4.52;100.00
60832;BME280;46665;51.558;-0.448;2024-01-06T01:50:36;100486.09;;;4.52;100.00
60832;BME280;46665;51.558;-0.448;2024-01-06T01:53:20;100489.59;;;4.52;100.00
60832;BME280;46665;51.558;-0.448;2024-01-06T01:56:05;100490.50;;;4.58;100.00
60832;BME280;46665;51.558;-0.448;2024-01-06T01:58:50;100496.16;;;4.56;100.00
60832;BME280;46665;51.558;-0.448;2024-01-06T02:01:34;100504.25;;;4.56;100.00
60832;BME280;46665;51.558;-0.448;2024-01-06T02:04:18;100504.81;;;4.59;100.00
60832;BME280;46665;51.558;-0.448;2024-01-06T02:07:01;100507.81;;;4.62;100.00
60832;BME280;46665;51.558;-0.448;2024-01-06T02:09:45;100507.03;;;4.62;100.00
60832;BME280;46665;51.558;-0.448;2024-01-06T02:12:29;100513.22;;;4.62;100.00
60832;BME280;46665;51.558;-0.448;2024-01-06T02:15:13;100510.28;;;4.64;100.00
60832;BME280;46665;51.558;-0.448;2024-01-06T02:17:58;100512.41;;;4.62;100.00
60832;BME280;46665;51.558;-0.448;2024-01-06T02:20:43;100529.47;;;4.67;100.00
60832;BME280;46665;51.558;-0.448;2024-01-06T02:23:29;100531.94;;;4.69;100.00
60832;BME280;46665;51.558;-0.448;2024-01-06T02:26:13;100530.28;;;4.68;100.00
60832;BME280;46665;51.558;-0.448;2024-01-06T02:28:58;100527.59;;;4.68;100.00
60832;BME280;46665;51.558;-0.448;2024-01-06T02:31:42;100532.75;;;4.69;100.00
60832;BME280;46665;51.558;-0.448;2024-01-06T02:34:26;100534.63;;;4.69;100.00
60832;BME280;46665;51.558;-0.448;2024-01-06T02:37:10;100528.09;;;4.65;100.00
60832;BME280;46665;51.558;-0.448;2024-01-06T02:39:54;100541.06;;;4.68;100.00
60832;BME280;46665;51.558;-0.448;2024-01-06T02:42:38;100540.25;;;4.67;100.00
60832;BME280;46665;51.558;-0.448;2024-01-06T02:45:22;100542.94;;;4.67;100.00
60832;BME280;46665;51.558;-0.448;2024-01-06T02:48:06;100543.84;;;4.73;100.00
60832;BME280;46665;51.558;-0.448;2024-01-06T02:50:50;100543.25;;;4.71;100.00
60832;BME280;46665;51.558;-0.448;2024-01-06T02:53:34;100552.50;;;4.75;100.00
60832;BME280;46665;51.558;-0.448;2024-01-06T02:56:18;100557.09;;;4.74;100.00
60832;BME280;46665;51.558;-0.448;2024-01-06T02:59:02;100553.00;;;4.72;100.00
60832;BME280;46665;51.558;-0.448;2024-01-06T03:01:46;100555.69;;;4.72;100.00
60832;BME280;46665;51.558;-0.448;2024-01-06T03:04:30;100556.19;;;4.69;100.00
60832;BME280;46665;51.558;-0.448;2024-01-06T03:07:14;100555.63;;;4.67;100.00
60832;BME280;46665;51.558;-0.448;2024-01-06T03:09:57;100555.03;;;4.65;100.00
60832;BME280;46665;51.558;-0.448;2024-01-06T03:12:41;100562.63;;;4.68;100.00
60832;BME280;46665;51.558;-0.448;2024-01-06T03:15:25;100555.84;;;4.65;100.00
60832;BME280;46665;51.558;-0.448;2024-01-06T03:18:10;100566.13;;;4.68;100.00
60832;BME280;46665;51.558;-0.448;2024-01-06T03:20:54;100570.22;;;4.71;100.00
60832;BME280;46665;51.558;-0.448;2024-01-06T03:23:38;100569.09;;;4.67;100.00
60832;BME280;46665;51.558;-0.448;2024-01-06T03:26:21;100572.59;;;4.67;100.00
60832;BME280;46665;51.558;-0.448;2024-01-06T03:29:06;100583.69;;;4.71;100.00
60832;BME280;46665;51.558;-0.448;2024-01-06T03:31:49;100573.41;;;4.68;100.00
60832;BME280;46665;51.558;-0.448;2024-01-06T03:34:33;100589.94;;;4.71;100.00
60832;BME280;46665;51.558;-0.448;2024-01-06T03:37:17;100589.66;;;4.73;100.00
60832;BME280;46665;51.558;-0.448;2024-01-06T03:40:01;100585.59;;;4.70;100.00
60832;BME280;46665;51.558;-0.448;2024-01-06T03:42:46;100596.22;;;4.77;100.00
60832;BME280;46665;51.558;-0.448;2024-01-06T03:45:30;100598.34;;;4.75;100.00
60832;BME280;46665;51.558;-0.448;2024-01-06T03:48:14;100594.81;;;4.74;100.00
60832;BME280;46665;51.558;-0.448;2024-01-06T03:51:02;100594.91;;;4.80;100.00
60832;BME280;46665;51.558;-0.448;2024-01-06T03:53:46;100597.59;;;4.80;100.00
60832;BME280;46665;51.558;-0.448;2024-01-06T03:56:30;100606.84;;;4.84;100.00
60832;BME280;46665;51.558;-0.448;2024-01-06T03:59:14;100603.91;;;4.85;100.00
60832;BME280;46665;51.558;-0.448;2024-01-06T04:01:57;100612.56;;;4.87;100.00
60832;BME280;46665;51.558;-0.448;2024-01-06T04:04:42;100606.84;;;4.84;100.00
60832;BME280;46665;51.558;-0.448;2024-01-06T04:07:26;100620.88;;;4.86;100.00
60832;BME280;46665;51.558;-0.448;2024-01-06T04:10:09;100626.53;;;4.84;100.00
60832;BME280;46665;51.558;-0.448;2024-01-06T04:12:53;100630.88;;;4.85;100.00
60832;BME280;46665;51.558;-0.448;2024-01-06T04:15:38;100628.44;;;4.84;100.00
60832;BME280;46665;51.558;-0.448;2024-01-06T04:18:21;100631.94;;;4.84;100.00
60832;BME280;46665;51.558;-0.448;2024-01-06T04:21:05;100632.25;;;4.88;100.00
60832;BME280;46665;51.558;-0.448;2024-01-06T04:23:49;100634.63;;;4.84;100.00
60832;BME280;46665;51.558;-0.448;2024-01-06T04:26:33;100640.25;;;4.83;100.00
60832;BME280;46665;51.558;-0.448;2024-01-06T04:29:17;100643.75;;;4.83;100.00
60832;BME280;46665;51.558;-0.448;2024-01-06T04:32:01;100640.75;;;4.80;100.00
60832;BME280;46665;51.558;-0.448;2024-01-06T04:34:45;100645.78;;;4.76;100.00
60832;BME280;46665;51.558;-0.448;2024-01-06T04:37:29;100655.53;;;4.77;100.00
60832;BME280;46665;51.558;-0.448;2024-01-06T04:40:13;100647.56;;;4.70;100.00
60832;BME280;46665;51.558;-0.448;2024-01-06T04:42:57;100655.44;;;4.72;100.00
60832;BME280;46665;51.558;-0.448;2024-01-06T04:45:41;100645.88;;;4.64;100.00
60832;BME280;46665;51.558;-0.448;2024-01-06T04:48:25;100659.16;;;4.54;100.00
60832;BME280;46665;51.558;-0.448;2024-01-06T04:51:09;100663.72;;;4.53;100.00
60832;BME280;46665;51.558;-0.448;2024-01-06T04:53:55;100663.97;;;4.52;100.00
60832;BME280;46665;51.558;-0.448;2024-01-06T04:56:38;100666.22;;;4.43;100.00
60832;BME280;46665;51.558;-0.448;2024-01-06T04:59:23;100671.03;;;4.41;100.00
60832;BME280;46665;51.558;-0.448;2024-01-06T05:02:07;100669.97;;;4.42;100.00
60832;BME280;46665;51.558;-0.448;2024-01-06T05:04:51;100669.16;;;4.42;100.00
60832;BME280;46665;51.558;-0.448;2024-01-06T05:07:35;100670.94;;;4.36;100.00
60832;BME280;46665;51.558;-0.448;2024-01-06T05:10:19;100674.09;;;4.33;100.00
60832;BME280;46665;51.558;-0.448;2024-01-06T05:13:03;100680.78;;;4.30;100.00
60832;BME280;46665;51.558;-0.448;2024-01-06T05:15:47;100683.50;;;4.30;100.00
60832;BME280;46665;51.558;-0.448;2024-01-06T05:18:31;100687.13;;;4.24;100.00
60832;BME280;46665;51.558;-0.448;2024-01-06T05:21:16;100693.31;;;4.25;100.00
60832;BME280;46665;51.558;-0.448;2024-01-06T05:24:00;100692.63;;;4.18;100.00
60832;BME280;46665;51.558;-0.448;2024-01-06T05:26:45;100687.13;;;4.12;100.00
60832;BME280;46665;51.558;-0.448;2024-01-06T05:29:29;100683.28;;;4.08;100.00
60832;BME280;46665;51.558;-0.448;2024-01-06T05:32:13;100688.69;;;4.08;100.00
60832;BME280;46665;51.558;-0.448;2024-01-06T05:34:56;100700.59;;;4.12;100.00
60832;BME280;46665;51.558;-0.448;2024-01-06T05:37:40;100709.63;;;4.18;100.00
60832;BME280;46665;51.558;-0.448;2024-01-06T05:40:24;100715.56;;;4.20;100.00
60832;BME280;46665;51.558;-0.448;2024-01-06T05:43:08;100720.97;;;4.20;100.00
60832;BME280;46665;51.558;-0.448;2024-01-06T05:45:52;100723.91;;;4.19;100.00
60832;BME280;46665;51.558;-0.448;2024-01-06T05:48:36;100718.25;;;4.20;100.00
60832;BME280;46665;51.558;-0.448;2024-01-06T05:51:20;100729.28;;;4.19;100.00
60832;BME280;46665;51.558;-0.448;2024-01-06T05:54:05;100724.94;;;4.18;100.00
60832;BME280;46665;51.558;-0.448;2024-01-06T05:56:48;100731.88;;;4.13;100.00
60832;BME280;46665;51.558;-0.448;2024-01-06T05:59:33;100737.63;;;4.05;100.00
60832;BME280;46665;51.558;-0.448;2024-01-06T06:02:17;100744.53;;;4.01;100.00
60832;BME280;46665;51.558;-0.448;2024-01-06T06:05:01;100759.06;;;4.00;100.00
60832;BME280;46665;51.558;-0.448;2024-01-06T06:07:45;100756.00;;;3.97;100.00
60832;BME280;46665;51.558;-0.448;2024-01-06T06:10:28;100759.28;;;3.87;100.00
60832;BME280;46665;51.558;-0.448;2024-01-06T06:13:24;100753.75;;;3.82;100.00
60832;BME280;46665;51.558;-0.448;2024-01-06T06:16:12;100771.09;;;3.86;100.00
60832;BME280;46665;51.558;-0.448;2024-01-06T06:18:56;100766.19;;;3.83;100.00
60832;BME280;46665;51.558;-0.448;2024-01-06T06:21:40;100766.63;;;3.80;100.00
60832;BME280;46665;51.558;-0.448;2024-01-06T06:24:23;100773.44;;;3.82;100.00
60832;BME280;46665;51.558;-0.448;2024-01-06T06:27:07;100778.59;;;3.84;100.00
60832;BME280;46665;51.558;-0.448;2024-01-06T06:29:52;100790.75;;;3.86;100.00
60832;BME280;46665;51.558;-0.448;2024-01-06T06:32:37;100788.31;;;3.85;100.00
60832;BME280;46665;51.558;-0.448;2024-01-06T06:35:22;100799.66;;;3.87;100.00
60832;BME280;46665;51.558;-0.448;2024-01-06T06:38:06;100792.03;;;3.84;100.00
60832;BME280;46665;51.558;-0.448;2024-01-06T06:40:50;100802.34;;;3.87;100.00
60832;BME280;46665;51.558;-0.448;2024-01-06T06:43:34;100808.56;;;3.87;100.00
60832;BME280;46665;51.558;-0.448;2024-01-06T06:46:18;100809.00;;;3.84;100.00
60832;BME280;46665;51.558;-0.448;2024-01-06T06:49:02;100814.88;;;3.81;100.00
60832;BME280;46665;51.558;-0.448;2024-01-06T06:51:46;100817.34;;;3.83;100.00
60832;BME280;46665;51.558;-0.448;2024-01-06T06:54:32;100824.59;;;3.82;100.00
60832;BME280;46665;51.558;-0.448;2024-01-06T06:57:16;100831.94;;;3.87;100.00
60832;BME280;46665;51.558;-0.448;2024-01-06T07:00:00;100841.44;;;3.89;100.00
60832;BME280;46665;51.558;-0.448;2024-01-06T07:02:44;100843.31;;;3.89;100.00
60832;BME280;46665;51.558;-0.448;2024-01-06T07:05:28;100847.88;;;3.88;100.00
60832;BME280;46665;51.558;-0.448;2024-01-06T07:08:12;100848.69;;;3.89;100.00
60832;BME280;46665;51.558;-0.448;2024-01-06T07:10:58;100848.94;;;3.87;100.00
60832;BME280;46665;51.558;-0.448;2024-01-06T07:13:42;100864.38;;;3.92;100.00
60832;BME280;46665;51.558;-0.448;2024-01-06T07:16:26;100862.97;;;3.89;100.00
60832;BME280;46665;51.558;-0.448;2024-01-06T07:19:10;100870.84;;;3.91;100.00
60832;BME280;46665;51.558;-0.448;2024-01-06T07:21:54;100864.84;;;3.89;100.00
60832;BME280;46665;51.558;-0.448;2024-01-06T07:24:38;100878.69;;;3.93;100.00
60832;BME280;46665;51.558;-0.448;2024-01-06T07:27:22;100881.38;;;3.93;100.00
60832;BME280;46665;51.558;-0.448;2024-01-06T07:30:06;100881.47;;;3.86;100.00
60832;BME280;46665;51.558;-0.448;2024-01-06T07:32:54;100888.06;;;3.90;100.00
60832;BME280;46665;51.558;-0.448;2024-01-06T07:35:37;100890.16;;;3.88;100.00
60832;BME280;46665;51.558;-0.448;2024-01-06T07:38:26;100901.94;;;3.87;100.00
60832;BME280;46665;51.558;-0.448;2024-01-06T07:41:10;100899.03;;;3.88;100.00
60832;BME280;46665;51.558;-0.448;2024-01-06T07:43:56;100897.16;;;3.89;100.00
60832;BME280;46665;51.558;-0.448;2024-01-06T07:46:40;100898.22;;;3.88;100.00
60832;BME280;46665;51.558;-0.448;2024-01-06T07:49:24;100905.25;;;3.89;100.00
60832;BME280;46665;51.558;-0.448;2024-01-06T07:52:08;100909.00;;;3.88;100.00
60832;BME280;46665;51.558;-0.448;2024-01-06T07:54:52;100904.41;;;3.88;100.00
60832;BME280;46665;51.558;-0.448;2024-01-06T07:57:36;100916.47;;;3.86;100.00
60832;BME280;46665;51.558;-0.448;2024-01-06T08:00:19;100910.16;;;3.80;100.00
60832;BME280;46665;51.558;-0.448;2024-01-06T08:03:03;100921.84;;;3.86;100.00
60832;BME280;46665;51.558;-0.448;2024-01-06T08:05:49;100925.00;;;3.83;100.00
60832;BME280;46665;51.558;-0.448;2024-01-06T08:08:33;100929.81;;;3.81;100.00
60832;BME280;46665;51.558;-0.448;2024-01-06T08:11:17;100932.72;;;3.79;100.00
60832;BME280;46665;51.558;-0.448;2024-01-06T08:14:01;100946.16;;;3.79;100.00
60832;BME280;46665;51.558;-0.448;2024-01-06T08:16:45;100937.88;;;3.81;100.00
60832;BME280;46665;51.558;-0.448;2024-01-06T08:19:30;100949.91;;;3.78;100.00
60832;BME280;46665;51.558;-0.448;2024-01-06T08:22:16;100955.91;;;3.80;100.00
60832;BME280;46665;51.558;-0.448;2024-01-06T08:24:59;100968.53;;;3.80;100.00
60832;BME280;46665;51.558;-0.448;2024-01-06T08:27:44;100969.59;;;3.79;100.00
60832;BME280;46665;51.558;-0.448;2024-01-06T08:30:29;100976.59;;;3.80;100.00
60832;BME280;46665;51.558;-0.448;2024-01-06T08:33:13;100978.84;;;3.83;100.00
60832;BME280;46665;51.558;-0.448;2024-01-06T08:35:57;100986.19;;;3.76;100.00
60832;BME280;46665;51.558;-0.448;2024-01-06T08:38:41;100985.72;;;3.79;100.00
60832;BME280;46665;51.558;-0.448;2024-01-06T08:41:25;100992.31;;;3.83;100.00
60832;BME280;46665;51.558;-0.448;2024-01-06T08:44:09;101000.16;;;3.84;100.00
60832;BME280;46665;51.558;-0.448;2024-01-06T08:46:52;100999.66;;;3.76;100.00
60832;BME280;46665;51.558;-0.448;2024-01-06T08:49:36;101006.91;;;3.75;100.00
60832;BME280;46665;51.558;-0.448;2024-01-06T08:52:20;101001.75;;;3.74;100.00
60832;BME280;46665;51.558;-0.448;2024-01-06T08:55:05;101011.69;;;3.73;100.00
60832;BME280;46665;51.558;-0.448;2024-01-06T08:57:49;101017.88;;;3.74;100.00
60832;BME280;46665;51.558;-0.448;2024-01-06T09:00:33;101010.28;;;3.71;100.00
60832;BME280;46665;51.558;-0.448;2024-01-06T09:03:16;101021.66;;;3.73;100.00
60832;BME280;46665;51.558;-0.448;2024-01-06T09:06:01;101024.91;;;3.75;100.00
60832;BME280;46665;51.558;-0.448;2024-01-06T09:08:46;101031.34;;;3.74;100.00
60832;BME280;46665;51.558;-0.448;2024-01-06T09:11:29;101035.09;;;3.73;100.00
60832;BME280;46665;51.558;-0.448;2024-01-06T09:14:13;101040.03;;;3.76;100.00
60832;BME280;46665;51.558;-0.448;2024-01-06T09:16:57;101038.75;;;3.78;100.00
60832;BME280;46665;51.558;-0.448;2024-01-06T09:19:41;101048.84;;;3.83;100.00
60832;BME280;46665;51.558;-0.448;2024-01-06T09:22:25;101054.84;;;3.85;100.00
60832;BME280;46665;51.558;-0.448;2024-01-06T09:25:09;101059.75;;;3.88;100.00
60832;BME280;46665;51.558;-0.448;2024-01-06T09:27:53;101069.72;;;3.87;100.00
60832;BME280;46665;51.558;-0.448;2024-01-06T09:30:37;101069.25;;;3.90;100.00
60832;BME280;46665;51.558;-0.448;2024-01-06T09:33:22;101079.72;;;3.80;100.00
60832;BME280;46665;51.558;-0.448;2024-01-06T09:36:07;101083.16;;;3.87;100.00
60832;BME280;46665;51.558;-0.448;2024-01-06T09:38:52;101088.91;;;3.91;100.00
60832;BME280;46665;51.558;-0.448;2024-01-06T09:41:36;101092.66;;;3.90;100.00
60832;BME280;46665;51.558;-0.448;2024-01-06T09:44:20;101091.59;;;3.91;100.00
60832;BME280;46665;51.558;-0.448;2024-01-06T09:47:05;101100.03;;;3.95;100.00
60832;BME280;46665;51.558;-0.448;2024-01-06T09:49:50;101102.53;;;3.96;100.00
60832;BME280;46665;51.558;-0.448;2024-01-06T09:52:39;101102.06;;;3.99;100.00
60832;BME280;46665;51.558;-0.448;2024-01-06T09:55:26;101106.41;;;4.00;100.00
60832;BME280;46665;51.558;-0.448;2024-01-06T09:58:10;101114.94;;;3.97;100.00
60832;BME280;46665;51.558;-0.448;2024-01-06T10:00:55;101108.28;;;4.00;100.00
60832;BME280;46665;51.558;-0.448;2024-01-06T10:03:39;101119.28;;;3.98;100.00
60832;BME280;46665;51.558;-0.448;2024-01-06T10:06:23;101116.59;;;3.98;100.00
60832;BME280;46665;51.558;-0.448;2024-01-06T10:09:06;101126.69;;;4.03;100.00
60832;BME280;46665;51.558;-0.448;2024-01-06T10:11:54;101138.03;;;4.05;100.00
60832;BME280;46665;51.558;-0.448;2024-01-06T10:14:39;101134.53;;;4.04;100.00
60832;BME280;46665;51.558;-0.448;2024-01-06T10:17:23;101140.88;;;4.10;100.00
60832;BME280;46665;51.558;-0.448;2024-01-06T10:20:09;101135.06;;;4.13;100.00
60832;BME280;46665;51.558;-0.448;2024-01-06T10:22:53;101136.22;;;4.17;100.00
60832;BME280;46665;51.558;-0.448;2024-01-06T10:25:37;101144.69;;;4.21;100.00
60832;BME280;46665;51.558;-0.448;2024-01-06T10:28:23;101142.16;;;4.26;100.00
60832;BME280;46665;51.558;-0.448;2024-01-06T10:31:08;101147.75;;;4.24;100.00
60832;BME280;46665;51.558;-0.448;2024-01-06T10:33:52;101139.66;;;4.24;100.00
60832;BME280;46665;51.558;-0.448;2024-01-06T10:36:38;101147.28;;;4.27;100.00
60832;BME280;46665;51.558;-0.448;2024-01-06T10:39:23;101153.50;;;4.28;100.00
60832;BME280;46665;51.558;-0.448;2024-01-06T10:42:07;101147.06;;;4.29;100.00
60832;BME280;46665;51.558;-0.448;2024-01-06T10:44:52;101161.56;;;4.28;100.00
60832;BME280;46665;51.558;-0.448;2024-01-06T10:47:37;101154.19;;;4.23;100.00
60832;BME280;46665;51.558;-0.448;2024-01-06T10:50:21;101163.31;;;4.22;100.00
60832;BME280;46665;51.558;-0.448;2024-01-06T10:53:06;101155.91;;;4.18;100.00
60832;BME280;46665;51.558;-0.448;2024-01-06T10:55:52;101147.69;;;4.12;100.00
60832;BME280;46665;51.558;-0.448;2024-01-06T10:58:36;101161.75;;;4.15;100.00
60832;BME280;46665;51.558;-0.448;2024-01-06T11:01:28;101161.53;;;4.16;100.00
60832;BME280;46665;51.558;-0.448;2024-01-06T11:04:13;101167.41;;;4.25;100.00
60832;BME280;46665;51.558;-0.448;2024-01-06T11:06:57;101167.34;;;4.31;100.00
60832;BME280;46665;51.558;-0.448;2024-01-06T11:09:48;101166.44;;;4.38;100.00
60832;BME280;46665;51.558;-0.448;2024-01-06T11:12:34;101166.34;;;4.44;100.00
60832;BME280;46665;51.558;-0.448;2024-01-06T11:15:44;101164.88;;;4.48;100.00
60832;BME280;46665;51.558;-0.448;2024-01-06T11:18:39;101152.09;;;4.55;100.00
60832;BME280;46665;51.558;-0.448;2024-01-06T11:21:25;101168.66;;;4.59;100.00
60832;BME280;46665;51.558;-0.448;2024-01-06T11:24:19;101157.88;;;4.59;100.00
60832;BME280;46665;51.558;-0.448;2024-01-06T11:27:22;101162.44;;;4.59;100.00
60832;BME280;46665;51.558;-0.448;2024-01-06T11:30:09;101155.03;;;4.54;100.00
60832;BME280;46665;51.558;-0.448;2024-01-06T11:33:04;101163.34;;;4.52;100.00
60832;BME280;46665;51.558;-0.448;2024-01-06T11:35:48;101170.53;;;4.59;100.00
60832;BME280;46665;51.558;-0.448;2024-01-06T11:38:38;101166.31;;;4.63;100.00
60832;BME280;46665;51.558;-0.448;2024-01-06T11:41:48;101170.06;;;4.62;100.00
60832;BME280;46665;51.558;-0.448;2024-01-06T11:44:39;101166.16;;;4.57;100.00
60832;BME280;46665;51.558;-0.448;2024-01-06T11:47:23;101178.16;;;4.62;100.00
60832;BME280;46665;51.558;-0.448;2024-01-06T11:50:07;101177.09;;;4.63;100.00
60832;BME280;46665;51.558;-0.448;2024-01-06T11:52:53;101164.81;;;4.67;100.00
60832;BME280;46665;51.558;-0.448;2024-01-06T11:55:40;101171.84;;;4.68;100.00
60832;BME280;46665;51.558;-0.448;2024-01-06T11:58:26;101174.19;;;4.76;100.00
60832;BME280;46665;51.558;-0.448;2024-01-06T12:01:10;101179.31;;;4.66;100.00
60832;BME280;46665;51.558;-0.448;2024-01-06T12:03:54;101179.72;;;4.69;100.00
60832;BME280;46665;51.558;-0.448;2024-01-06T12:06:38;101172.97;;;4.60;100.00
60832;BME280;46665;51.558;-0.448;2024-01-06T12:09:22;101165.56;;;4.55;100.00
60832;BME280;46665;51.558;-0.448;2024-01-06T12:12:08;101172.31;;;4.65;100.00
60832;BME280;46665;51.558;-0.448;2024-01-06T12:14:54;101173.56;;;4.62;100.00
60832;BME280;46665;51.558;-0.448;2024-01-06T12:17:39;101168.78;;;4.64;100.00
60832;BME280;46665;51.558;-0.448;2024-01-06T12:20:23;101171.25;;;4.66;100.00
60832;BME280;46665;51.558;-0.448;2024-01-06T12:23:07;101173.66;;;4.55;100.00
60832;BME280;46665;51.558;-0.448;2024-01-06T12:25:51;101165.13;;;4.59;100.00
60832;BME280;46665;51.558;-0.448;2024-01-06T12:28:35;101165.72;;;4.61;100.00
60832;BME280;46665;51.558;-0.448;2024-01-06T12:31:20;101165.41;;;4.69;100.00
60832;BME280;46665;51.558;-0.448;2024-01-06T12:34:04;101162.38;;;4.77;100.00
60832;BME280;46665;51.558;-0.448;2024-01-06T12:36:52;101170.00;;;4.80;100.00
60832;BME280;46665;51.558;-0.448;2024-01-06T12:39:37;101163.59;;;4.81;100.00
60832;BME280;46665;51.558;-0.448;2024-01-06T12:42:21;101163.72;;;4.86;100.00
60832;BME280;46665;51.558;-0.448;2024-01-06T12:45:08;101157.16;;;4.94;100.00
60832;BME280;46665;51.558;-0.448;2024-01-06T12:47:52;101168.78;;;4.94;100.00
60832;BME280;46665;51.558;-0.448;2024-01-06T12:50:36;101168.63;;;4.89;100.00
60832;BME280;46665;51.558;-0.448;2024-01-06T12:53:20;101167.56;;;4.90;100.00
60832;BME280;46665;51.558;-0.448;2024-01-06T12:56:04;101164.28;;;4.88;100.00
60832;BME280;46665;51.558;-0.448;2024-01-06T12:58:48;101159.72;;;4.89;100.00
60832;BME280;46665;51.558;-0.448;2024-01-06T13:01:32;101160.09;;;4.92;100.00
60832;BME280;46665;51.558;-0.448;2024-01-06T13:04:16;101161.38;;;4.90;100.00
60832;BME280;46665;51.558;-0.448;2024-01-06T13:07:00;101165.81;;;4.96;100.00
60832;BME280;46665;51.558;-0.448;2024-01-06T13:09:44;101156.00;;;5.02;100.00
60832;BME280;46665;51.558;-0.448;2024-01-06T13:12:28;101164.34;;;5.12;100.00
60832;BME280;46665;51.558;-0.448;2024-01-06T13:15:14;101158.84;;;5.18;100.00
60832;BME280;46665;51.558;-0.448;2024-01-06T13:17:58;101161.19;;;5.15;100.00
60832;BME280;46665;51.558;-0.448;2024-01-06T13:20:42;101170.44;;;5.19;100.00
60832;BME280;46665;51.558;-0.448;2024-01-06T13:23:27;101170.22;;;5.20;100.00
60832;BME280;46665;51.558;-0.448;2024-01-06T13:26:11;101167.75;;;5.19;100.00
60832;BME280;46665;51.558;-0.448;2024-01-06T13:28:55;101178.69;;;5.24;100.00
60832;BME280;46665;51.558;-0.448;2024-01-06T13:31:39;101171.41;;;5.25;100.00
60832;BME280;46665;51.558;-0.448;2024-01-06T13:34:23;101181.22;;;5.19;100.00
60832;BME280;46665;51.558;-0.448;2024-01-06T13:37:07;101185.22;;;5.16;100.00
60832;BME280;46665;51.558;-0.448;2024-01-06T13:39:52;101185.81;;;5.07;100.00
60832;BME280;46665;51.558;-0.448;2024-01-06T13:42:35;101185.22;;;5.05;100.00
60832;BME280;46665;51.558;-0.448;2024-01-06T13:45:19;101192.56;;;4.97;100.00
60832;BME280;46665;51.558;-0.448;2024-01-06T13:48:04;101198.09;;;5.03;100.00
60832;BME280;46665;51.558;-0.448;2024-01-06T13:50:48;101187.03;;;4.92;100.00
60832;BME280;46665;51.558;-0.448;2024-01-06T13:53:32;101192.56;;;4.97;100.00
60832;BME280;46665;51.558;-0.448;2024-01-06T13:56:16;101200.56;;;5.04;100.00
60832;BME280;46665;51.558;-0.448;2024-01-06T13:59:01;101197.28;;;5.02;100.00
60832;BME280;46665;51.558;-0.448;2024-01-06T14:01:45;101206.66;;;4.99;100.00
60832;BME280;46665;51.558;-0.448;2024-01-06T14:04:29;101201.88;;;5.02;100.00
60832;BME280;46665;51.558;-0.448;2024-01-06T14:07:13;101215.34;;;5.02;100.00
60832;BME280;46665;51.558;-0.448;2024-01-06T14:09:57;101216.75;;;5.04;100.00